createdAt,value
2018-06-14T00:01:44.296Z,75.30
2018-06-14T00:04:12.986Z,75.10
2018-06-14T00:06:41.977Z,75.10
2018-06-14T00:09:11.404Z,75.20
2018-06-14T00:11:40.474Z,75.10
2018-06-14T00:14:09.148Z,75.40
2018-06-14T00:16:38.058Z,75.20
2018-06-14T00:19:06.829Z,75.20
2018-06-14T00:21:35.729Z,74.80
2018-06-14T00:24:04.452Z,75.00
2018-06-14T00:26:33.414Z,74.60
2018-06-14T00:29:02.172Z,75.30
2018-06-14T00:31:30.907Z,74.60
2018-06-14T00:33:59.989Z,74.40
2018-06-14T00:36:29.017Z,74.80
2018-06-14T00:38:57.972Z,74.70
2018-06-14T00:41:26.661Z,74.50
2018-06-14T00:43:55.383Z,74.60
2018-06-14T00:46:24.157Z,74.30
2018-06-14T00:48:53.089Z,75.40
2018-06-14T00:51:21.760Z,74.70
2018-06-14T00:53:50.729Z,74.70
2018-06-14T00:56:19.606Z,75.00
2018-06-14T00:58:48.517Z,74.70
2018-06-14T01:01:17.530Z,74.70
2018-06-14T01:03:46.574Z,74.50
2018-06-14T01:06:15.712Z,74.70
2018-06-14T01:08:44.432Z,74.60
2018-06-14T01:11:13.356Z,74.80
2018-06-14T01:13:42.347Z,74.60
2018-06-14T01:16:11.085Z,74.90
2018-06-14T01:18:39.762Z,74.90
2018-06-14T01:21:08.585Z,74.80
2018-06-14T01:23:37.640Z,74.70
2018-06-14T01:26:06.391Z,74.40
2018-06-14T01:28:35.283Z,75.10
2018-06-14T01:31:04.173Z,74.60
2018-06-14T01:33:33.114Z,74.60
2018-06-14T01:36:01.837Z,74.50
2018-06-14T01:38:30.473Z,74.10
2018-06-14T01:40:59.161Z,74.10
2018-06-14T01:43:27.841Z,74.10
2018-06-14T01:45:56.503Z,74.30
2018-06-14T01:48:25.117Z,74.30
2018-06-14T01:50:53.912Z,74.30
2018-06-14T01:53:22.862Z,74.40
2018-06-14T01:55:51.681Z,74.30
2018-06-14T01:58:20.541Z,74.30
2018-06-14T02:00:49.639Z,74.70
2018-06-14T02:03:18.688Z,74.60
2018-06-14T02:05:47.449Z,74.70
2018-06-14T02:08:16.311Z,74.60
2018-06-14T02:10:45.223Z,75.10
2018-06-14T02:13:14.093Z,74.80
2018-06-14T02:15:42.916Z,74.50
2018-06-14T02:18:11.876Z,74.50
2018-06-14T02:20:40.751Z,74.80
2018-06-14T02:23:09.659Z,74.90
2018-06-14T02:25:38.460Z,74.70
2018-06-14T02:28:07.123Z,74.70
2018-06-14T02:30:36.128Z,74.80
2018-06-14T02:33:05.029Z,74.70
2018-06-14T02:35:33.985Z,74.80
2018-06-14T02:38:03.035Z,74.70
2018-06-14T02:40:31.962Z,74.70
2018-06-14T02:43:00.669Z,74.90
2018-06-14T02:45:29.576Z,75.00
2018-06-14T02:47:58.577Z,74.70
2018-06-14T02:50:27.361Z,74.60
2018-06-14T02:52:56.282Z,74.60
2018-06-14T02:55:25.244Z,74.40
2018-06-14T02:57:54.135Z,74.40
2018-06-14T03:00:23.061Z,74.10
2018-06-14T03:02:51.685Z,74.50
2018-06-14T03:05:20.398Z,74.60
2018-06-14T03:07:49.030Z,74.30
2018-06-14T03:10:17.849Z,74.40
2018-06-14T03:12:46.580Z,75.40
2018-06-14T03:15:15.381Z,74.30
2018-06-14T03:17:44.111Z,74.30
2018-06-14T03:20:12.875Z,74.00
2018-06-14T03:22:41.715Z,73.80
2018-06-14T03:25:10.396Z,73.60
2018-06-14T03:27:39.111Z,73.80
2018-06-14T03:30:07.899Z,74.20
2018-06-14T03:32:36.735Z,73.90
2018-06-14T03:35:05.455Z,74.20
2018-06-14T03:37:34.177Z,74.40
2018-06-14T03:40:02.930Z,73.90
2018-06-14T03:42:31.576Z,74.50
2018-06-14T03:45:00.369Z,74.00
2018-06-14T03:47:29.072Z,73.70
2018-06-14T03:49:57.776Z,73.60
2018-06-14T03:52:26.415Z,73.70
2018-06-14T03:57:23.473Z,73.60
2018-06-14T03:59:52.189Z,73.80
2018-06-14T04:02:20.957Z,73.90
2018-06-14T04:04:49.690Z,74.00
2018-06-14T04:07:18.365Z,74.20
2018-06-14T04:09:47.048Z,74.00
2018-06-14T04:12:15.799Z,74.00
2018-06-14T04:14:44.555Z,74.20
2018-06-14T04:17:13.243Z,74.00
2018-06-14T04:19:41.964Z,73.80
2018-06-14T04:22:10.730Z,74.80
2018-06-14T04:24:39.448Z,73.60
2018-06-14T04:27:08.277Z,73.80
2018-06-14T04:29:36.960Z,73.20
2018-06-14T04:32:05.649Z,73.10
2018-06-14T04:34:34.384Z,73.40
2018-06-14T04:37:03.074Z,73.10
2018-06-14T04:39:31.901Z,73.40
2018-06-14T04:42:00.737Z,73.10
2018-06-14T04:44:29.395Z,73.20
2018-06-14T04:46:58.154Z,73.50
2018-06-14T04:49:26.947Z,73.50
2018-06-14T04:51:55.626Z,73.80
2018-06-14T04:54:24.443Z,73.90
2018-06-14T04:56:53.165Z,73.60
2018-06-14T04:59:22.024Z,73.80
2018-06-14T05:01:57.290Z,73.70
2018-06-14T05:04:26.067Z,73.60
2018-06-14T05:06:54.731Z,73.60
2018-06-14T05:09:23.490Z,73.60
2018-06-14T05:11:52.314Z,73.60
2018-06-14T05:14:21.093Z,74.00
2018-06-14T05:16:49.867Z,74.60
2018-06-14T05:19:18.753Z,74.50
2018-06-14T05:21:47.621Z,74.50
2018-06-14T05:24:16.370Z,74.10
2018-06-14T05:26:45.256Z,74.60
2018-06-14T05:29:13.933Z,74.40
2018-06-14T05:31:42.629Z,74.20
2018-06-14T05:34:11.457Z,74.20
2018-06-14T05:36:40.148Z,74.50
2018-06-14T05:39:10.986Z,74.80
2018-06-14T05:41:40.092Z,74.20
2018-06-14T05:44:08.765Z,74.20
2018-06-14T05:49:06.064Z,74.20
2018-06-14T05:51:34.760Z,73.80
2018-06-14T05:54:03.493Z,73.80
2018-06-14T05:56:32.406Z,73.20
2018-06-14T05:59:01.163Z,73.30
2018-06-14T06:01:30.082Z,72.80
2018-06-14T06:03:58.850Z,73.40
2018-06-14T06:06:27.655Z,72.90
2018-06-14T06:08:56.544Z,73.00
2018-06-14T06:11:25.216Z,73.20
2018-06-14T06:13:53.965Z,73.00
2018-06-14T06:16:22.733Z,73.20
2018-06-14T06:18:51.390Z,73.40
2018-06-14T06:21:20.144Z,72.80
2018-06-14T06:23:48.829Z,72.70
2018-06-14T06:26:17.705Z,72.80
2018-06-14T06:28:46.450Z,72.90
2018-06-14T06:31:15.111Z,73.00
2018-06-14T06:36:22.853Z,72.80
2018-06-14T06:38:51.530Z,72.80
2018-06-14T06:41:20.240Z,72.60
2018-06-14T06:43:48.907Z,73.30
2018-06-14T06:46:17.681Z,72.70
2018-06-14T06:48:46.732Z,72.50
2018-06-14T06:51:15.513Z,73.00
2018-06-14T06:53:44.273Z,72.30
2018-06-14T06:56:12.992Z,72.40
2018-06-14T06:58:41.835Z,72.70
2018-06-14T07:01:10.421Z,72.50
2018-06-14T07:03:39.070Z,72.80
2018-06-14T07:06:07.988Z,72.50
2018-06-14T07:08:36.597Z,71.80
2018-06-14T07:11:05.264Z,71.70
2018-06-14T07:13:33.976Z,71.60
2018-06-14T07:16:02.703Z,71.60
2018-06-14T07:18:31.606Z,71.30
2018-06-14T07:21:00.417Z,71.50
2018-06-14T07:23:29.612Z,70.60
2018-06-14T07:25:58.626Z,70.80
2018-06-14T07:28:27.676Z,71.10
2018-06-14T07:30:56.501Z,71.50
2018-06-14T07:33:25.456Z,71.60
2018-06-14T07:35:54.110Z,71.70
2018-06-14T07:38:22.841Z,71.60
2018-06-14T07:40:51.520Z,71.70
2018-06-14T07:43:20.138Z,71.60
2018-06-14T07:45:49.092Z,71.00
2018-06-14T07:48:17.881Z,71.20
2018-06-14T07:50:46.824Z,71.50
2018-06-14T07:53:15.767Z,71.50
2018-06-14T07:55:44.476Z,71.40
2018-06-14T07:58:13.376Z,70.70
2018-06-14T08:00:42.115Z,71.50
2018-06-14T08:03:11.027Z,71.20
2018-06-14T08:05:39.716Z,69.80
2018-06-14T08:08:08.348Z,69.70
2018-06-14T08:10:37.229Z,70.50
2018-06-14T08:13:06.114Z,70.50
2018-06-14T08:15:35.581Z,69.50
2018-06-14T08:18:04.462Z,67.20
2018-06-14T08:20:33.708Z,67.60
2018-06-14T08:23:02.450Z,66.90
2018-06-14T08:25:31.153Z,66.90
2018-06-14T08:27:59.965Z,67.20
2018-06-14T08:30:28.764Z,67.10
2018-06-14T08:32:57.566Z,67.70
2018-06-14T08:35:27.226Z,67.40
2018-06-14T08:37:55.946Z,66.70
2018-06-14T08:40:25.113Z,66.40
2018-06-14T08:42:53.879Z,66.80
2018-06-14T08:45:22.663Z,66.30
2018-06-14T08:47:51.416Z,67.00
2018-06-14T08:50:20.157Z,65.60
2018-06-14T08:52:48.945Z,65.00
2018-06-14T08:55:17.578Z,65.50
2018-06-14T08:57:46.288Z,65.50
2018-06-14T09:00:14.994Z,65.50
2018-06-14T09:02:43.748Z,65.20
2018-06-14T09:05:12.526Z,66.10
2018-06-14T09:07:41.234Z,66.10
2018-06-14T09:10:10.027Z,67.10
2018-06-14T09:12:38.707Z,64.30
2018-06-14T09:15:07.377Z,63.60
2018-06-14T09:17:36.103Z,63.20
2018-06-14T09:20:04.838Z,63.40
2018-06-14T09:22:33.565Z,62.10
2018-06-14T09:25:02.362Z,62.50
2018-06-14T09:27:31.115Z,61.70
2018-06-14T09:29:59.988Z,62.30
2018-06-14T09:32:28.882Z,62.70
2018-06-14T09:34:57.598Z,62.70
2018-06-14T09:37:26.539Z,63.00
2018-06-14T09:39:55.424Z,62.40
2018-06-14T09:42:24.423Z,62.30
2018-06-14T09:44:53.344Z,62.30
2018-06-14T09:47:22.117Z,62.20
2018-06-14T09:49:50.831Z,63.80
2018-06-14T09:52:19.727Z,62.50
2018-06-14T09:54:48.501Z,61.30
2018-06-14T09:57:17.274Z,61.60
2018-06-14T09:59:45.977Z,61.70
2018-06-14T10:02:14.747Z,60.80
2018-06-14T10:04:43.451Z,60.10
2018-06-14T10:07:12.207Z,60.30
2018-06-14T10:09:40.941Z,60.00
2018-06-14T10:14:37.931Z,59.70
2018-06-14T10:17:06.639Z,59.70
2018-06-14T10:19:35.386Z,57.10
2018-06-14T10:22:04.171Z,56.90
2018-06-14T10:24:33.011Z,56.70
2018-06-14T10:27:01.900Z,55.50
2018-06-14T10:29:30.696Z,56.40
2018-06-14T10:31:59.449Z,55.40
2018-06-14T10:34:28.256Z,55.50
2018-06-14T10:36:56.938Z,56.10
2018-06-14T10:39:25.762Z,55.20
2018-06-14T10:41:54.635Z,55.40
2018-06-14T10:44:23.440Z,55.70
2018-06-14T10:46:52.529Z,55.80
2018-06-14T10:49:21.227Z,55.40
2018-06-14T10:51:50.101Z,54.80
2018-06-14T10:54:18.891Z,54.10
2018-06-14T10:56:47.569Z,53.10
2018-06-14T10:59:16.331Z,52.40
2018-06-14T11:01:45.021Z,52.90
2018-06-14T11:04:14.038Z,53.30
2018-06-14T11:06:42.800Z,52.90
2018-06-14T11:09:12.168Z,52.20
2018-06-14T11:11:41.252Z,53.00
2018-06-14T11:14:09.957Z,52.30
2018-06-14T11:16:38.828Z,52.40
2018-06-14T11:19:07.722Z,53.20
2018-06-14T11:21:36.509Z,53.10
2018-06-14T11:24:05.197Z,53.40
2018-06-14T11:26:34.079Z,52.80
2018-06-14T11:29:02.773Z,53.50
2018-06-14T11:31:31.638Z,52.20
2018-06-14T11:34:00.591Z,51.60
2018-06-14T11:36:29.526Z,51.90
2018-06-14T11:38:58.421Z,51.10
2018-06-14T11:41:27.151Z,51.20
2018-06-14T11:43:55.994Z,51.90
2018-06-14T11:46:24.663Z,53.10
2018-06-14T11:48:53.669Z,52.40
2018-06-14T11:51:22.474Z,52.70
2018-06-14T11:53:51.205Z,52.40
2018-06-14T11:56:19.905Z,52.20
2018-06-14T11:58:48.676Z,52.60
2018-06-14T12:01:17.464Z,53.10
2018-06-14T12:03:46.309Z,52.40
2018-06-14T12:06:15.013Z,52.70
2018-06-14T12:08:43.878Z,52.40
2018-06-14T12:11:12.563Z,52.00
2018-06-14T12:13:41.456Z,51.60
2018-06-14T12:16:10.267Z,51.60
2018-06-14T12:18:39.316Z,51.80
2018-06-14T12:21:08.030Z,52.60
2018-06-14T12:23:37.154Z,52.50
2018-06-14T12:26:06.078Z,52.10
2018-06-14T12:28:34.803Z,52.00
2018-06-14T12:31:03.499Z,51.50
2018-06-14T12:33:32.292Z,51.80
2018-06-14T12:36:01.014Z,52.00
2018-06-14T12:38:29.753Z,51.80
2018-06-14T12:40:58.470Z,51.70
2018-06-14T12:43:27.511Z,52.40
2018-06-14T12:45:56.239Z,51.70
2018-06-14T12:48:24.957Z,51.90
2018-06-14T12:50:53.800Z,51.70
2018-06-14T12:53:22.683Z,52.00
2018-06-14T12:55:51.420Z,52.00
2018-06-14T12:58:20.164Z,52.20
2018-06-14T13:00:48.955Z,51.60
2018-06-14T13:03:17.754Z,51.40
2018-06-14T13:05:46.665Z,52.10
2018-06-14T13:08:15.652Z,52.30
2018-06-14T13:10:44.641Z,52.80
2018-06-14T13:13:13.516Z,52.90
2018-06-14T13:15:42.470Z,52.70
2018-06-14T13:18:11.503Z,52.30
2018-06-14T13:20:40.291Z,53.10
2018-06-14T13:23:09.312Z,52.50
2018-06-14T13:25:38.345Z,52.70
2018-06-14T13:28:07.202Z,51.70
2018-06-14T13:30:36.002Z,52.00
2018-06-14T13:33:04.738Z,52.60
2018-06-14T13:35:33.477Z,53.10
2018-06-14T13:38:02.345Z,52.20
2018-06-14T13:40:31.137Z,51.70
2018-06-14T13:42:59.906Z,51.00
2018-06-14T13:45:28.584Z,51.20
2018-06-14T13:47:57.419Z,51.20
2018-06-14T13:50:26.108Z,50.50
2018-06-14T13:52:54.828Z,50.80
2018-06-14T13:55:23.528Z,51.20
2018-06-14T13:57:52.278Z,50.50
2018-06-14T14:00:21.046Z,50.70
2018-06-14T14:02:49.933Z,50.80
2018-06-14T14:05:18.593Z,50.70
2018-06-14T14:07:47.277Z,51.60
2018-06-14T14:10:16.206Z,51.00
2018-06-14T14:12:44.987Z,51.50
2018-06-14T14:15:13.701Z,51.30
2018-06-14T14:17:42.387Z,51.60
2018-06-14T14:20:11.277Z,51.50
2018-06-14T14:25:08.366Z,51.90
2018-06-14T14:27:37.168Z,51.80
2018-06-14T14:30:05.917Z,51.60
2018-06-14T14:32:34.736Z,51.40
2018-06-14T14:35:03.525Z,51.80
2018-06-14T14:37:32.258Z,51.30
2018-06-14T14:40:01.060Z,52.10
2018-06-14T14:42:29.702Z,52.30
2018-06-14T14:44:58.955Z,52.50
2018-06-14T14:47:27.612Z,52.50
2018-06-14T14:49:56.425Z,52.10
2018-06-14T14:54:53.516Z,52.10
2018-06-14T14:57:22.509Z,52.10
2018-06-14T14:59:51.302Z,52.00
2018-06-14T15:02:19.976Z,52.20
2018-06-14T15:04:49.059Z,51.50
2018-06-14T15:07:17.876Z,51.60
2018-06-14T15:09:46.645Z,51.20
2018-06-14T15:12:15.334Z,50.80
2018-06-14T15:14:44.094Z,50.70
2018-06-14T15:17:12.932Z,51.30
2018-06-14T15:19:41.788Z,50.90
2018-06-14T15:22:10.501Z,51.00
2018-06-14T15:24:39.375Z,50.80
2018-06-14T15:27:08.064Z,50.20
2018-06-14T15:29:37.063Z,50.50
2018-06-14T15:32:05.917Z,50.60
2018-06-14T15:34:34.860Z,50.90
2018-06-14T15:37:03.720Z,51.00
2018-06-14T15:39:32.416Z,50.40
2018-06-14T15:42:01.039Z,51.00
2018-06-14T15:44:29.756Z,51.80
2018-06-14T15:46:58.514Z,51.60
2018-06-14T15:49:27.311Z,50.80
2018-06-14T15:51:56.306Z,50.60
2018-06-14T15:54:24.972Z,50.40
2018-06-14T15:56:53.750Z,50.30
2018-06-14T15:59:22.576Z,49.80
2018-06-14T16:01:51.263Z,50.40
2018-06-14T16:04:20.238Z,50.30
2018-06-14T16:06:48.959Z,50.00
2018-06-14T16:09:17.704Z,50.40
2018-06-14T16:11:46.516Z,50.10
2018-06-14T16:14:15.241Z,50.10
2018-06-14T16:16:44.097Z,50.10
2018-06-14T16:19:13.466Z,50.70
2018-06-14T16:21:42.113Z,50.70
2018-06-14T16:24:10.878Z,50.70
2018-06-14T16:26:39.525Z,51.10
2018-06-14T16:29:08.363Z,51.40
2018-06-14T16:31:37.054Z,51.00
2018-06-14T16:34:06.574Z,51.40
2018-06-14T16:36:35.414Z,51.00
2018-06-14T16:39:06.273Z,52.00
2018-06-14T16:41:35.086Z,51.60
2018-06-14T16:44:04.131Z,51.70
2018-06-14T16:46:33.403Z,51.50
2018-06-14T16:49:02.340Z,54.60
2018-06-14T16:51:31.167Z,51.60
2018-06-14T16:53:59.855Z,51.40
2018-06-14T16:56:28.806Z,53.30
2018-06-14T16:58:57.596Z,53.00
2018-06-14T17:01:26.361Z,52.50
2018-06-14T17:03:55.613Z,52.40
2018-06-14T17:06:24.512Z,52.50
2018-06-14T17:08:53.290Z,51.90
2018-06-14T17:11:22.299Z,51.80
2018-06-14T17:13:51.160Z,52.20
2018-06-14T17:16:19.861Z,53.30
2018-06-14T17:18:48.571Z,53.40
2018-06-14T17:21:17.324Z,51.90
2018-06-14T17:23:46.137Z,52.80
2018-06-14T17:26:14.927Z,53.50
2018-06-14T17:28:43.781Z,53.00
2018-06-14T17:31:12.514Z,52.30
2018-06-14T17:33:41.308Z,52.60
2018-06-14T17:36:10.105Z,52.50
2018-06-14T17:38:38.910Z,52.80
2018-06-14T17:41:07.658Z,53.20
2018-06-14T17:43:36.401Z,53.00
2018-06-14T17:46:05.632Z,52.60
2018-06-14T17:48:34.707Z,52.30
2018-06-14T17:51:04.036Z,52.90
2018-06-14T17:53:32.919Z,52.20
2018-06-14T17:56:01.743Z,53.50
2018-06-14T17:58:30.740Z,52.90
2018-06-14T18:00:59.547Z,53.20
2018-06-14T18:03:28.145Z,52.90
2018-06-14T18:05:57.249Z,53.30
2018-06-14T18:08:26.140Z,53.20
2018-06-14T18:10:55.057Z,53.10
2018-06-14T18:13:23.840Z,53.30
2018-06-14T18:15:52.668Z,53.80
2018-06-14T18:18:21.469Z,54.10
2018-06-14T18:20:50.239Z,54.20
2018-06-14T18:23:19.179Z,54.30
2018-06-14T18:25:47.968Z,54.30
2018-06-14T18:28:17.270Z,54.40
2018-06-14T18:30:46.297Z,54.30
2018-06-14T18:33:15.285Z,54.50
2018-06-14T18:35:44.369Z,54.60
2018-06-14T18:38:13.371Z,55.20
2018-06-14T18:40:42.237Z,54.80
2018-06-14T18:43:11.062Z,54.90
2018-06-14T18:45:39.944Z,55.00
2018-06-14T18:48:08.908Z,55.20
2018-06-14T18:50:37.907Z,55.20
2018-06-14T18:53:06.934Z,55.20
2018-06-14T18:55:35.995Z,55.10
2018-06-14T18:58:05.355Z,55.30
2018-06-14T19:00:34.493Z,55.20
2018-06-14T19:03:03.511Z,55.30
2018-06-14T19:05:32.476Z,55.70
2018-06-14T19:08:01.192Z,55.70
2018-06-14T19:10:30.058Z,56.00
2018-06-14T19:12:58.951Z,56.20
2018-06-14T19:15:27.945Z,56.40
2018-06-14T19:17:56.741Z,56.50
2018-06-14T19:20:25.412Z,56.40
2018-06-14T19:22:54.442Z,56.90
2018-06-14T19:27:58.025Z,57.60
2018-06-14T19:30:29.278Z,57.60
2018-06-14T19:33:01.984Z,57.90
2018-06-14T19:35:32.753Z,58.20
2018-06-14T19:38:01.564Z,58.20
2018-06-14T19:40:30.704Z,58.30
2018-06-14T19:42:59.831Z,58.20
2018-06-14T19:45:29.263Z,58.30
2018-06-14T19:47:58.658Z,58.40
2018-06-14T19:50:27.574Z,58.00
2018-06-14T19:52:56.565Z,58.40
2018-06-14T19:55:25.301Z,58.90
2018-06-14T19:57:54.145Z,59.10
2018-06-14T20:00:23.464Z,59.30
2018-06-14T20:02:52.128Z,60.10
2018-06-14T20:05:21.333Z,60.30
2018-06-14T20:07:49.976Z,60.60
2018-06-14T20:10:19.011Z,61.60
2018-06-14T20:12:48.176Z,61.80
2018-06-14T20:15:16.855Z,61.90
2018-06-14T20:17:45.896Z,62.30
2018-06-14T20:20:15.015Z,63.00
2018-06-14T20:22:43.767Z,63.00
2018-06-14T20:25:12.586Z,63.60
2018-06-14T20:27:41.473Z,63.70
2018-06-14T20:30:10.179Z,63.90
2018-06-14T20:32:40.160Z,64.20
2018-06-14T20:35:09.050Z,64.10
2018-06-14T20:37:38.040Z,65.10
2018-06-14T20:40:07.697Z,66.00
2018-06-14T20:42:36.485Z,66.20
2018-06-14T20:45:05.260Z,66.60
2018-06-14T20:47:33.903Z,66.90
2018-06-14T20:50:02.806Z,67.40
2018-06-14T20:52:32.109Z,67.50
2018-06-14T20:55:00.782Z,68.70
2018-06-14T20:57:29.890Z,68.00
2018-06-14T20:59:58.691Z,68.30
2018-06-14T21:02:27.464Z,69.00
2018-06-14T21:04:56.297Z,69.40
2018-06-14T21:07:25.486Z,69.40
2018-06-14T21:09:54.390Z,69.80
2018-06-14T21:12:23.242Z,70.10
2018-06-14T21:14:58.652Z,70.30
2018-06-14T21:17:27.574Z,70.10
2018-06-14T21:19:56.523Z,69.80
2018-06-14T21:22:25.468Z,70.10
2018-06-14T21:24:54.090Z,70.30
2018-06-14T21:27:22.826Z,70.30
2018-06-14T21:29:51.722Z,70.50
2018-06-14T21:32:20.433Z,70.90
2018-06-14T21:34:49.297Z,70.90
2018-06-14T21:37:18.277Z,71.20
2018-06-14T21:39:46.987Z,71.10
2018-06-14T21:42:15.875Z,71.50
2018-06-14T21:44:44.515Z,71.80
2018-06-14T21:47:13.530Z,72.00
2018-06-14T21:49:42.440Z,71.70
2018-06-14T21:52:11.367Z,72.00
2018-06-14T21:54:40.032Z,72.30
2018-06-14T21:57:09.012Z,72.60
2018-06-14T21:59:37.784Z,73.10
2018-06-14T22:02:06.741Z,73.10
2018-06-14T22:04:35.600Z,73.30
2018-06-14T22:07:04.536Z,73.50
2018-06-14T22:09:33.290Z,73.40
2018-06-14T22:12:01.981Z,73.60
2018-06-14T22:14:30.877Z,74.00
2018-06-14T22:17:00.042Z,73.90
2018-06-14T22:19:28.744Z,74.00
2018-06-14T22:21:57.412Z,74.10
2018-06-14T22:24:26.211Z,74.40
2018-06-14T22:26:54.919Z,74.50
2018-06-14T22:29:23.780Z,74.30
2018-06-14T22:31:52.584Z,74.80
2018-06-14T22:34:32.654Z,74.60
2018-06-14T22:37:01.451Z,74.70
2018-06-14T22:39:30.097Z,75.00
2018-06-14T22:41:58.868Z,75.10
2018-06-14T22:44:27.803Z,75.00
2018-06-14T22:46:56.561Z,75.20
2018-06-14T22:49:25.350Z,75.30
2018-06-14T22:52:37.694Z,75.50
2018-06-14T22:55:06.695Z,75.20
2018-06-14T22:57:35.474Z,75.00
2018-06-14T23:00:04.538Z,75.40
2018-06-14T23:02:33.383Z,75.60
2018-06-14T23:07:30.702Z,75.40
2018-06-14T23:10:20.890Z,75.50
2018-06-14T23:12:49.678Z,75.70
2018-06-14T23:15:18.751Z,75.50
2018-06-14T23:17:48.318Z,76.20
2018-06-14T23:20:18.280Z,76.10
2018-06-14T23:22:48.427Z,77.20
2018-06-14T23:25:18.026Z,76.80
2018-06-14T23:27:46.980Z,76.90
2018-06-14T23:30:15.883Z,77.10
2018-06-14T23:32:44.912Z,77.30
2018-06-14T23:35:13.899Z,77.50
2018-06-14T23:37:42.881Z,77.20
2018-06-14T23:40:11.720Z,77.20
2018-06-14T23:42:40.780Z,77.40
2018-06-14T23:45:09.465Z,78.20
2018-06-14T23:47:38.253Z,78.00
2018-06-14T23:50:07.000Z,77.80
2018-06-14T23:52:35.962Z,77.80
2018-06-14T23:55:04.822Z,78.10
2018-06-14T23:57:33.790Z,78.20
